This is the latest recevied weather packets stored in our database for station/object OK1TOM-6. If no packets are shown the sender has not sent any weather packets the latest 1 day(s).
| Time | Temp. | Humidity | Pressure | Rain* | Wind** | Luminosity | Snow |
|---|---|---|---|---|---|---|---|
| 1778064334 | 15° C | 69% | 1009.5 hPa | 0 mm | - | - | - |
| 1778063127 | 15.56° C | 65% | 1009.4 hPa | 0 mm | - | - | - |
| 1778061316 | 14.44° C | 74% | 1009.5 hPa | 0 mm | - | - | - |
| 1778060773 | 14.44° C | 74% | 1009.5 hPa | 0 mm | - | - | - |
| 1778059566 | 14.44° C | 73% | 1009.5 hPa | 0 mm | - | - | - |
| 1778057756 | 13.89° C | 79% | 1009.5 hPa | 0 mm | - | - | - |
| 1778056549 | 12.78° C | 81% | 1009.5 hPa | 0 mm | - | - | - |
| 1778055342 | 12.78° C | 81% | 1009.3 hPa | 0 mm | - | - | - |
| 1778054739 | 12.22° C | 83% | 1009.4 hPa | 0 mm | - | - | - |
| 1778054135 | 12.22° C | 82% | 1009.2 hPa | 0 mm | - | - | - |
| 1778053592 | 11.67° C | 86% | 1009.2 hPa | 0 mm | - | - | - |
| 1778052355 | 11.67° C | 87% | 1009 hPa | 0 mm | - | - | - |
| 1778051148 | 11.67° C | 87% | 1009 hPa | 0 mm | - | - | - |
| 1778050545 | 11.11° C | 88% | 1009 hPa | 0 mm | - | - | - |
| 1778049338 | 11.11° C | 90% | 1008.9 hPa | 0 mm | - | - | - |
| 1778048131 | 11.11° C | 91% | 1008.9 hPa | 0 mm | - | - | - |
| 1778046924 | 11.11° C | 91% | 1009.1 hPa | 0 mm | - | - | - |
| 1778046321 | 11.11° C | 91% | 1009.2 hPa | 0 mm | - | - | - |
| 1778045174 | 10.56° C | 92% | 1009 hPa | 0 mm | - | - | - |
| 1778044571 | 10.56° C | 92% | 1008.9 hPa | 0 mm | - | - | - |
| 1778043364 | 10° C | 95% | 1008.5 hPa | 0 mm | - | - | - |
| 1778042761 | 10° C | 94% | 1008.5 hPa | 0 mm | - | - | - |
| 1778042157 | 10° C | 95% | 1008.4 hPa | 0 mm | - | - | - |
| 1778041554 | 10° C | 94% | 1008.6 hPa | 0 mm | - | - | - |
| 1778040950 | 10° C | 94% | 1008.4 hPa | 0 mm | - | - | - |
* Rain latest hour (hover to see other rain measurements)
** Current wind speed in m/s (hover to see current wind gust speed)